| time (UTC) | temp F | wind direction | speed MPH | gust MPH | rain 1hr in | rain 24hr in | rain mn in | humidity % | barometer mb |
| 20260506001508 | 66 | 96 | 0.0 | 0.0 | 0.00 | 0.83 | 0.83 | 96 | 1004.9 |
| 20260506000022 | 66 | 98 | 0.0 | 1.0 | 0.00 | 0.83 | 0.83 | 96 | 1004.6 |
| 20260505234537 | 66 | 98 | 0.0 | 0.0 | 0.00 | 0.83 | 0.83 | 96 | 1005.0 |
| 20260505233046 | 66 | 91 | 0.0 | 0.0 | 0.00 | 0.83 | 0.83 | 96 | 1005.0 |
| 20260505231600 | 66 | 91 | 0.0 | 2.0 | 0.00 | 0.83 | 0.83 | 96 | 1005.0 |
| 20260505230025 | 66 | 91 | 0.0 | 0.0 | 0.00 | 0.83 | 0.83 | 96 | 1005.0 |
| 20260505224522 | 65 | 115 | 0.0 | 0.0 | 0.00 | 0.83 | 0.83 | 96 | 1005.1 |
| 20260505223043 | 65 | 115 | 0.0 | 0.0 | 0.00 | 0.83 | 0.83 | 96 | 1005.0 |
| 20260505221548 | 65 | 108 | 0.0 | 2.0 | 0.00 | 0.83 | 0.83 | 96 | 1005.0 |
| 20260505220106 | 64 | 108 | 0.0 | 0.0 | 0.00 | 0.83 | 0.83 | 96 | 1005.4 |
| 20260505214510 | 64 | 108 | 0.0 | 0.0 | 0.00 | 0.83 | 0.83 | 96 | 1005.5 |
| 20260505213018 | 64 | 108 | 0.0 | 0.0 | 0.00 | 0.83 | 0.83 | 95 | 1005.7 |
| 20260505211531 | 64 | 108 | 0.0 | 0.0 | 0.00 | 0.83 | 0.83 | 95 | 1005.8 |
| 20260505210044 | 64 | 108 | 0.0 | 2.0 | 0.00 | 0.83 | 0.83 | 95 | 1006.0 |
| 20260505204608 | 64 | 316 | 0.0 | 0.0 | 0.00 | 0.83 | 0.83 | 95 | 1006.0 |
| 20260505203009 | 64 | 297 | 0.0 | 0.0 | 0.00 | 0.83 | 0.83 | 95 | 1006.0 |
| 20260505201524 | 64 | 297 | 0.0 | 2.0 | 0.00 | 0.83 | 0.83 | 95 | 1006.1 |
| 20260505200037 | 64 | 297 | 0.0 | 1.0 | 0.00 | 0.83 | 0.83 | 95 | 1006.2 |
| 20260505194603 | 63 | 323 | 0.0 | 0.0 | 0.00 | 0.83 | 0.83 | 95 | 1006.1 |
| 20260505193104 | 63 | 323 | 0.0 | 0.0 | 0.00 | 0.83 | 0.83 | 95 | 1006.3 |
| 20260505191514 | 62 | 21 | 0.0 | 1.0 | 0.01 | 0.83 | 0.83 | 95 | 1006.3 |
| 20260505190027 | 62 | 21 | 0.0 | 1.0 | 0.02 | 0.83 | 0.83 | 95 | 1006.4 |
| 20260505184540 | 62 | 348 | 0.0 | 2.0 | 0.02 | 0.83 | 0.83 | 95 | 1006.5 |
| 20260505183100 | 61 | 289 | 0.0 | 1.0 | 0.02 | 0.83 | 0.83 | 95 | 1006.7 |
| 20260505181506 | 61 | 36 | 0.0 | 2.0 | 0.01 | 0.82 | 0.82 | 95 | 1006.7 |
| 20260505180017 | 61 | 36 | 0.0 | 2.0 | 0.00 | 0.81 | 0.81 | 95 | 1006.9 |
| 20260505174530 | 61 | 36 | 0.0 | 2.0 | 0.00 | 0.81 | 0.81 | 94 | 1007.1 |
| 20260505173048 | 60 | 23 | 0.0 | 1.0 | 0.02 | 0.81 | 0.81 | 94 | 1007.1 |
| 20260505171557 | 60 | 360 | 0.0 | 2.0 | 0.05 | 0.81 | 0.81 | 94 | 1007.1 |
| 20260505170008 | 60 | 360 | 0.0 | 2.0 | 0.09 | 0.81 | 0.81 | 94 | 1007.4 |
| 20260505164542 | 60 | 360 | 0.0 | 2.0 | 0.20 | 0.81 | 0.81 | 94 | 1008.0 |
| 20260505163032 | 59 | 360 | 0.0 | 2.0 | 0.23 | 0.79 | 0.79 | 93 | 1008.2 |
| 20260505161545 | 59 | 360 | 0.0 | 2.0 | 0.28 | 0.76 | 0.76 | 93 | 1008.2 |
| 20260505153019 | 59 | 32 | 0.0 | 2.0 | 0.30 | 0.55 | 0.55 | 92 | 1008.8 |
| 20260505151536 | 59 | 32 | 0.0 | 1.0 | 0.31 | 0.47 | 0.47 | 91 | 1008.5 |
| 20260505124537 | 61 | 20 | 0.0 | 0.0 | 0.00 | 0.00 | 0.00 | 77 | 1008.4 |
| 20260505123048 | 62 | 20 | 0.0 | 0.0 | 0.00 | 0.00 | 0.00 | 76 | 1008.3 |
| 20260505121601 | 62 | 20 | 0.0 | 2.0 | 0.00 | 0.00 | 0.00 | 75 | 1008.1 |
| 20260505120011 | 62 | 20 | 0.0 | 2.0 | 0.00 | 0.00 | 0.00 | 75 | 1007.9 |
| 20260505114533 | 62 | 20 | 0.0 | 2.0 | 0.00 | 0.00 | 0.00 | 74 | 1007.8 |
| 20260505113039 | 62 | 20 | 0.0 | 0.0 | 0.00 | 0.00 | 0.00 | 73 | 1007.6 |
| 20260505111556 | 62 | 20 | 0.0 | 0.0 | 0.00 | 0.00 | 0.00 | 72 | 1007.2 |
| 20260505101542 | 63 | 126 | 0.0 | 2.0 | 0.00 | 0.00 | 0.00 | 69 | 1006.8 |
| 20260505100056 | 64 | 350 | 0.0 | 2.0 | 0.00 | 0.00 | 0.00 | 68 | 1006.7 |
| 20260505094506 | 64 | 355 | 0.0 | 0.0 | 0.00 | 0.00 | 0.00 | 67 | 1006.5 |
| 20260505093019 | 64 | 343 | 0.0 | 2.0 | 0.00 | 0.00 | 0.00 | 67 | 1006.5 |
| 20260505091549 | 64 | 43 | 0.0 | 2.0 | 0.00 | 0.00 | 0.00 | 67 | 1006.1 |
| 20260505090055 | 64 | 102 | 0.0 | 7.0 | 0.00 | 0.00 | 0.00 | 66 | 1006.2 |
| 20260505084559 | 64 | 93 | 0.0 | 4.0 | 0.00 | 0.00 | 0.00 | 66 | 1006.2 |
| 20260505083008 | 64 | 123 | 0.0 | 4.0 | 0.00 | 0.00 | 0.00 | 66 | 1006.3 |
| 20260505081529 | 63 | 321 | 0.0 | 2.0 | 0.00 | 0.00 | 0.00 | 66 | 1006.6 |
| 20260505080041 | 63 | 117 | 0.0 | 2.0 | 0.00 | 0.00 | 0.00 | 66 | 1006.7 |
| 20260505074606 | 63 | 125 | 0.0 | 2.0 | 0.00 | 0.00 | 0.00 | 66 | 1006.7 |
| 20260505073107 | 64 | 77 | 0.0 | 2.0 | 0.00 | 0.00 | 0.00 | 65 | 1006.9 |
| 20260505071519 | 64 | 77 | 0.0 | 2.0 | 0.00 | 0.00 | 0.00 | 64 | 1007.2 |
| 20260505070025 | 65 | 77 | 0.0 | 1.0 | 0.00 | 0.00 | 0.00 | 62 | 1007.8 |
| 20260505064535 | 65 | 69 | 0.0 | 0.0 | 0.00 | 0.00 | 0.00 | 61 | 1008.0 |
| 20260505063050 | 66 | 69 | 0.0 | 2.0 | 0.00 | 0.00 | 0.00 | 60 | 1008.2 |
| 20260505061624 | 66 | 69 | 0.0 | 2.0 | 0.00 | 0.00 | 0.00 | 60 | 1008.1 |
| 20260505060008 | 66 | 69 | 0.0 | 1.0 | 0.00 | 0.00 | 0.00 | 59 | 1008.3 |
| 20260505054523 | 67 | 89 | 0.0 | 0.0 | 0.00 | 0.00 | 0.00 | 59 | 1008.2 |
| 20260505053031 | 67 | 43 | 0.0 | 2.0 | 0.00 | 0.00 | 0.00 | 59 | 1008.2 |
| 20260505051545 | 67 | 118 | 0.0 | 2.0 | 0.00 | 0.00 | 0.00 | 58 | 1008.3 |
| 20260505041535 | 67 | 89 | 0.0 | 2.0 | 0.00 | 0.00 | 0.00 | 58 | 1008.5 |
| 20260505040050 | 67 | 127 | 0.0 | 2.0 | 0.00 | 0.00 | 0.00 | 58 | 1008.4 |
| 20260505034500 | 68 | 142 | 0.0 | 1.0 | 0.00 | 0.00 | 0.00 | 57 | 1008.4 |
| 20260505033027 | 68 | 142 | 0.0 | 2.0 | 0.00 | 0.00 | 0.00 | 56 | 1008.4 |
| 20260505031528 | 68 | 142 | 0.0 | 0.0 | 0.00 | 0.00 | 0.00 | 55 | 1008.3 |
| 20260505030040 | 68 | 142 | 0.0 | 2.0 | 0.00 | 0.00 | 0.00 | 54 | 1008.3 |
| 20260505024607 | 69 | 69 | 0.0 | 2.0 | 0.00 | 0.00 | 0.00 | 53 | 1008.1 |
| 20260505023004 | 69 | 69 | 0.0 | 2.0 | 0.00 | 0.00 | 0.00 | 52 | 1008.0 |
| 20260505021533 | 70 | 103 | 0.0 | 0.0 | 0.00 | 0.00 | 0.00 | 51 | 1007.9 |
| 20260505020030 | 71 | 103 | 0.0 | 0.0 | 0.00 | 0.00 | 0.00 | 50 | 1007.7 |
| 20260505014546 | 72 | 99 | 0.0 | 1.0 | 0.00 | 0.00 | 0.00 | 48 | 1007.6 |
| 20260505013057 | 73 | 99 | 0.0 | 1.0 | 0.00 | 0.00 | 0.00 | 47 | 1007.6 |
| 20260505011508 | 73 | 115 | 0.0 | 2.0 | 0.00 | 0.00 | 0.00 | 46 | 1007.7 |
| 20260505010020 | 74 | 115 | 0.0 | 2.0 | 0.00 | 0.00 | 0.00 | 45 | 1007.6 |
| 20260505004541 | 75 | 90 | 0.0 | 2.0 | 0.00 | 0.00 | 0.00 | 44 | 1007.3 |
| 20260505003046 | 75 | 96 | 0.0 | 3.0 | 0.00 | 0.00 | 0.00 | 43 | 1007.4 |